sensor_id;sensor_type;location;lat;lon;timestamp;temperature;humidity
46652;DHT22;32377;52.182;5.398;2024-03-29T00:01:16;9.10;99.90
46652;DHT22;32377;52.182;5.398;2024-03-29T00:03:41;9.00;99.90
46652;DHT22;32377;52.182;5.398;2024-03-29T00:06:08;9.10;99.90
46652;DHT22;32377;52.182;5.398;2024-03-29T00:08:33;9.00;99.90
46652;DHT22;32377;52.182;5.398;2024-03-29T00:10:59;8.90;99.90
46652;DHT22;32377;52.182;5.398;2024-03-29T00:13:25;8.90;99.90
46652;DHT22;32377;52.182;5.398;2024-03-29T00:15:50;8.90;99.90
46652;DHT22;32377;52.182;5.398;2024-03-29T00:18:17;8.80;99.90
46652;DHT22;32377;52.182;5.398;2024-03-29T00:20:43;8.80;99.90
46652;DHT22;32377;52.182;5.398;2024-03-29T00:23:08;8.80;99.90
46652;DHT22;32377;52.182;5.398;2024-03-29T00:25:34;8.70;99.90
46652;DHT22;32377;52.182;5.398;2024-03-29T00:27:59;8.70;99.90
46652;DHT22;32377;52.182;5.398;2024-03-29T00:30:26;8.60;99.90
46652;DHT22;32377;52.182;5.398;2024-03-29T00:32:52;8.70;99.90
46652;DHT22;32377;52.182;5.398;2024-03-29T00:35:17;8.70;99.90
46652;DHT22;32377;52.182;5.398;2024-03-29T00:37:44;8.70;99.90
46652;DHT22;32377;52.182;5.398;2024-03-29T00:40:10;8.70;99.90
46652;DHT22;32377;52.182;5.398;2024-03-29T00:42:36;8.70;99.90
46652;DHT22;32377;52.182;5.398;2024-03-29T00:45:02;8.70;99.90
46652;DHT22;32377;52.182;5.398;2024-03-29T00:47:27;8.70;99.90
46652;DHT22;32377;52.182;5.398;2024-03-29T00:49:53;8.70;99.90
46652;DHT22;32377;52.182;5.398;2024-03-29T00:52:19;8.70;99.90
46652;DHT22;32377;52.182;5.398;2024-03-29T00:54:45;8.60;99.90
46652;DHT22;32377;52.182;5.398;2024-03-29T00:57:10;8.60;99.90
46652;DHT22;32377;52.182;5.398;2024-03-29T00:59:38;8.50;99.90
46652;DHT22;32377;52.182;5.398;2024-03-29T01:02:04;8.50;99.90
46652;DHT22;32377;52.182;5.398;2024-03-29T01:04:30;8.50;99.90
46652;DHT22;32377;52.182;5.398;2024-03-29T01:06:55;8.40;99.90
46652;DHT22;32377;52.182;5.398;2024-03-29T01:09:21;8.50;99.90
46652;DHT22;32377;52.182;5.398;2024-03-29T01:11:47;8.50;99.90
46652;DHT22;32377;52.182;5.398;2024-03-29T01:14:13;8.50;99.90
46652;DHT22;32377;52.182;5.398;2024-03-29T01:16:38;8.50;99.90
46652;DHT22;32377;52.182;5.398;2024-03-29T01:19:04;8.50;99.90
46652;DHT22;32377;52.182;5.398;2024-03-29T01:21:30;8.50;99.90
46652;DHT22;32377;52.182;5.398;2024-03-29T01:23:56;8.40;99.90
46652;DHT22;32377;52.182;5.398;2024-03-29T01:26:22;8.40;99.90
46652;DHT22;32377;52.182;5.398;2024-03-29T01:28:47;8.50;99.90
46652;DHT22;32377;52.182;5.398;2024-03-29T01:31:13;8.50;99.90
46652;DHT22;32377;52.182;5.398;2024-03-29T01:33:38;8.40;99.90
46652;DHT22;32377;52.182;5.398;2024-03-29T01:36:07;8.50;99.90
46652;DHT22;32377;52.182;5.398;2024-03-29T01:38:33;8.50;99.90
46652;DHT22;32377;52.182;5.398;2024-03-29T01:40:59;8.50;99.90
46652;DHT22;32377;52.182;5.398;2024-03-29T01:43:24;8.40;99.90
46652;DHT22;32377;52.182;5.398;2024-03-29T01:45:56;8.50;99.90
46652;DHT22;32377;52.182;5.398;2024-03-29T01:48:23;8.40;99.90
46652;DHT22;32377;52.182;5.398;2024-03-29T01:50:50;8.40;99.90
46652;DHT22;32377;52.182;5.398;2024-03-29T01:53:18;8.30;99.90
46652;DHT22;32377;52.182;5.398;2024-03-29T01:55:44;8.30;99.90
46652;DHT22;32377;52.182;5.398;2024-03-29T01:58:11;8.30;99.90
46652;DHT22;32377;52.182;5.398;2024-03-29T02:00:39;8.30;99.90
46652;DHT22;32377;52.182;5.398;2024-03-29T02:03:07;8.30;99.90
46652;DHT22;32377;52.182;5.398;2024-03-29T02:05:36;8.30;99.90
46652;DHT22;32377;52.182;5.398;2024-03-29T02:08:03;8.30;99.90
46652;DHT22;32377;52.182;5.398;2024-03-29T02:10:29;8.20;99.90
46652;DHT22;32377;52.182;5.398;2024-03-29T02:12:55;8.20;99.90
46652;DHT22;32377;52.182;5.398;2024-03-29T02:15:20;8.30;99.90
46652;DHT22;32377;52.182;5.398;2024-03-29T02:17:46;8.20;99.90
46652;DHT22;32377;52.182;5.398;2024-03-29T02:20:12;8.20;99.90
46652;DHT22;32377;52.182;5.398;2024-03-29T02:22:43;8.20;99.90
46652;DHT22;32377;52.182;5.398;2024-03-29T02:25:12;8.10;99.90
46652;DHT22;32377;52.182;5.398;2024-03-29T02:27:38;8.10;99.90
46652;DHT22;32377;52.182;5.398;2024-03-29T02:30:04;8.00;99.90
46652;DHT22;32377;52.182;5.398;2024-03-29T02:32:30;8.00;99.90
46652;DHT22;32377;52.182;5.398;2024-03-29T02:34:56;8.00;99.90
46652;DHT22;32377;52.182;5.398;2024-03-29T02:37:21;8.00;99.90
46652;DHT22;32377;52.182;5.398;2024-03-29T02:39:47;8.00;99.90
46652;DHT22;32377;52.182;5.398;2024-03-29T02:42:12;8.00;99.90
46652;DHT22;32377;52.182;5.398;2024-03-29T02:44:38;8.00;99.90
46652;DHT22;32377;52.182;5.398;2024-03-29T02:47:03;8.00;99.90
46652;DHT22;32377;52.182;5.398;2024-03-29T02:49:29;8.00;99.90
46652;DHT22;32377;52.182;5.398;2024-03-29T02:51:54;8.00;99.90
46652;DHT22;32377;52.182;5.398;2024-03-29T02:54:20;8.10;99.90
46652;DHT22;32377;52.182;5.398;2024-03-29T02:56:46;8.10;99.90
46652;DHT22;32377;52.182;5.398;2024-03-29T02:59:11;8.10;99.90
46652;DHT22;32377;52.182;5.398;2024-03-29T03:01:37;8.10;99.90
46652;DHT22;32377;52.182;5.398;2024-03-29T03:04:03;8.10;99.90
46652;DHT22;32377;52.182;5.398;2024-03-29T03:06:28;8.10;99.90
46652;DHT22;32377;52.182;5.398;2024-03-29T03:08:54;8.10;99.90
46652;DHT22;32377;52.182;5.398;2024-03-29T03:11:38;8.10;99.90
46652;DHT22;32377;52.182;5.398;2024-03-29T03:14:04;8.10;99.90
46652;DHT22;32377;52.182;5.398;2024-03-29T03:16:29;8.10;99.90
46652;DHT22;32377;52.182;5.398;2024-03-29T03:18:55;8.10;99.90
46652;DHT22;32377;52.182;5.398;2024-03-29T03:21:20;8.20;99.90
46652;DHT22;32377;52.182;5.398;2024-03-29T03:23:46;8.30;99.90
46652;DHT22;32377;52.182;5.398;2024-03-29T03:26:12;8.20;99.90
46652;DHT22;32377;52.182;5.398;2024-03-29T03:28:37;8.30;99.90
46652;DHT22;32377;52.182;5.398;2024-03-29T03:31:03;8.30;99.90
46652;DHT22;32377;52.182;5.398;2024-03-29T03:33:28;8.40;99.90
46652;DHT22;32377;52.182;5.398;2024-03-29T03:35:54;8.40;99.90
46652;DHT22;32377;52.182;5.398;2024-03-29T03:38:20;8.40;99.90
46652;DHT22;32377;52.182;5.398;2024-03-29T03:40:45;8.40;99.90
46652;DHT22;32377;52.182;5.398;2024-03-29T03:43:11;8.40;99.90
46652;DHT22;32377;52.182;5.398;2024-03-29T03:45:40;8.50;99.90
46652;DHT22;32377;52.182;5.398;2024-03-29T03:48:07;8.50;99.90
46652;DHT22;32377;52.182;5.398;2024-03-29T03:50:34;8.50;99.90
46652;DHT22;32377;52.182;5.398;2024-03-29T03:52:59;8.50;99.90
46652;DHT22;32377;52.182;5.398;2024-03-29T03:55:25;8.60;99.90
46652;DHT22;32377;52.182;5.398;2024-03-29T03:57:51;8.60;99.90
46652;DHT22;32377;52.182;5.398;2024-03-29T04:00:18;8.60;99.90
46652;DHT22;32377;52.182;5.398;2024-03-29T04:02:49;8.60;99.90
46652;DHT22;32377;52.182;5.398;2024-03-29T04:05:19;8.70;99.90
46652;DHT22;32377;52.182;5.398;2024-03-29T04:07:44;8.70;99.90
46652;DHT22;32377;52.182;5.398;2024-03-29T04:10:10;8.80;99.90
46652;DHT22;32377;52.182;5.398;2024-03-29T04:12:36;8.80;99.90
46652;DHT22;32377;52.182;5.398;2024-03-29T04:15:02;8.80;99.90
46652;DHT22;32377;52.182;5.398;2024-03-29T04:17:29;8.90;99.90
46652;DHT22;32377;52.182;5.398;2024-03-29T04:19:59;8.90;99.90
46652;DHT22;32377;52.182;5.398;2024-03-29T04:22:27;8.90;99.90
46652;DHT22;32377;52.182;5.398;2024-03-29T04:24:53;9.00;99.90
46652;DHT22;32377;52.182;5.398;2024-03-29T04:27:21;9.00;99.90
46652;DHT22;32377;52.182;5.398;2024-03-29T04:29:50;9.00;99.90
46652;DHT22;32377;52.182;5.398;2024-03-29T04:32:16;9.10;99.90
46652;DHT22;32377;52.182;5.398;2024-03-29T04:34:42;9.00;99.90
46652;DHT22;32377;52.182;5.398;2024-03-29T04:37:07;9.10;99.90
46652;DHT22;32377;52.182;5.398;2024-03-29T04:39:33;9.10;99.90
46652;DHT22;32377;52.182;5.398;2024-03-29T04:41:59;9.10;99.90
46652;DHT22;32377;52.182;5.398;2024-03-29T04:44:28;9.10;99.90
46652;DHT22;32377;52.182;5.398;2024-03-29T04:46:54;9.10;99.90
46652;DHT22;32377;52.182;5.398;2024-03-29T04:49:22;9.20;99.90
46652;DHT22;32377;52.182;5.398;2024-03-29T04:51:55;9.20;99.90
46652;DHT22;32377;52.182;5.398;2024-03-29T04:54:21;9.20;99.90
46652;DHT22;32377;52.182;5.398;2024-03-29T04:58:55;9.20;99.90
46652;DHT22;32377;52.182;5.398;2024-03-29T05:01:20;9.30;99.90
46652;DHT22;32377;52.182;5.398;2024-03-29T05:03:46;9.30;99.90
46652;DHT22;32377;52.182;5.398;2024-03-29T05:06:12;9.30;99.90
46652;DHT22;32377;52.182;5.398;2024-03-29T05:08:37;9.20;99.90
46652;DHT22;32377;52.182;5.398;2024-03-29T05:11:03;9.30;99.90
46652;DHT22;32377;52.182;5.398;2024-03-29T05:13:28;9.20;99.90
46652;DHT22;32377;52.182;5.398;2024-03-29T05:15:56;9.30;99.90
46652;DHT22;32377;52.182;5.398;2024-03-29T05:18:22;9.30;99.90
46652;DHT22;32377;52.182;5.398;2024-03-29T05:20:47;9.20;99.90
46652;DHT22;32377;52.182;5.398;2024-03-29T05:23:16;9.20;99.90
46652;DHT22;32377;52.182;5.398;2024-03-29T05:25:42;9.10;99.90
46652;DHT22;32377;52.182;5.398;2024-03-29T05:28:09;9.10;99.90
46652;DHT22;32377;52.182;5.398;2024-03-29T05:30:35;9.00;99.90
46652;DHT22;32377;52.182;5.398;2024-03-29T05:33:03;9.00;99.90
46652;DHT22;32377;52.182;5.398;2024-03-29T05:35:31;9.00;1.00
46652;DHT22;32377;52.182;5.398;2024-03-29T05:37:57;9.00;1.00
46652;DHT22;32377;52.182;5.398;2024-03-29T05:40:26;8.90;1.00
46652;DHT22;32377;52.182;5.398;2024-03-29T05:42:53;8.80;1.00
46652;DHT22;32377;52.182;5.398;2024-03-29T05:45:27;8.80;40.60
46652;DHT22;32377;52.182;5.398;2024-03-29T05:47:57;8.80;96.50
46652;DHT22;32377;52.182;5.398;2024-03-29T05:50:26;8.70;99.90
46652;DHT22;32377;52.182;5.398;2024-03-29T05:52:52;8.70;99.90
46652;DHT22;32377;52.182;5.398;2024-03-29T05:55:18;8.60;99.90
46652;DHT22;32377;52.182;5.398;2024-03-29T05:57:44;8.50;99.90
46652;DHT22;32377;52.182;5.398;2024-03-29T06:00:14;8.40;99.90
46652;DHT22;32377;52.182;5.398;2024-03-29T06:02:40;8.40;1.00
46652;DHT22;32377;52.182;5.398;2024-03-29T06:05:06;8.40;1.00
46652;DHT22;32377;52.182;5.398;2024-03-29T06:07:32;8.40;26.70
46652;DHT22;32377;52.182;5.398;2024-03-29T06:09:59;8.40;96.90
46652;DHT22;32377;52.182;5.398;2024-03-29T06:12:26;8.40;99.90
46652;DHT22;32377;52.182;5.398;2024-03-29T06:14:52;8.50;99.90
46652;DHT22;32377;52.182;5.398;2024-03-29T06:17:36;8.60;99.90
46652;DHT22;32377;52.182;5.398;2024-03-29T06:20:03;8.60;99.90
46652;DHT22;32377;52.182;5.398;2024-03-29T06:22:29;8.70;99.90
46652;DHT22;32377;52.182;5.398;2024-03-29T06:24:56;8.70;99.90
46652;DHT22;32377;52.182;5.398;2024-03-29T06:27:39;8.70;99.90
46652;DHT22;32377;52.182;5.398;2024-03-29T06:30:05;8.70;99.90
46652;DHT22;32377;52.182;5.398;2024-03-29T06:32:31;8.70;99.90
46652;DHT22;32377;52.182;5.398;2024-03-29T06:34:58;8.80;99.90
46652;DHT22;32377;52.182;5.398;2024-03-29T06:37:24;8.80;99.90
46652;DHT22;32377;52.182;5.398;2024-03-29T06:39:51;8.80;99.90
46652;DHT22;32377;52.182;5.398;2024-03-29T06:42:17;8.80;99.90
46652;DHT22;32377;52.182;5.398;2024-03-29T06:44:43;8.90;99.90
46652;DHT22;32377;52.182;5.398;2024-03-29T06:47:09;9.00;99.90
46652;DHT22;32377;52.182;5.398;2024-03-29T06:49:35;9.00;99.90
46652;DHT22;32377;52.182;5.398;2024-03-29T06:52:01;8.90;99.90
46652;DHT22;32377;52.182;5.398;2024-03-29T06:54:27;8.90;99.90
46652;DHT22;32377;52.182;5.398;2024-03-29T06:56:54;9.00;99.90
46652;DHT22;32377;52.182;5.398;2024-03-29T06:59:20;9.00;99.90
46652;DHT22;32377;52.182;5.398;2024-03-29T07:01:45;9.00;99.90
46652;DHT22;32377;52.182;5.398;2024-03-29T07:04:15;9.00;99.90
46652;DHT22;32377;52.182;5.398;2024-03-29T07:06:41;9.00;99.90
46652;DHT22;32377;52.182;5.398;2024-03-29T07:09:09;9.00;99.90
46652;DHT22;32377;52.182;5.398;2024-03-29T07:11:35;9.00;99.90
46652;DHT22;32377;52.182;5.398;2024-03-29T07:14:01;9.10;99.90
46652;DHT22;32377;52.182;5.398;2024-03-29T07:16:27;9.10;99.90
46652;DHT22;32377;52.182;5.398;2024-03-29T07:18:52;9.10;99.90
46652;DHT22;32377;52.182;5.398;2024-03-29T07:21:18;9.20;99.90
46652;DHT22;32377;52.182;5.398;2024-03-29T07:23:44;9.10;99.90
46652;DHT22;32377;52.182;5.398;2024-03-29T07:26:09;9.20;99.90
46652;DHT22;32377;52.182;5.398;2024-03-29T07:28:36;9.20;99.90
46652;DHT22;32377;52.182;5.398;2024-03-29T07:31:06;9.10;99.90
46652;DHT22;32377;52.182;5.398;2024-03-29T07:33:32;9.10;99.90
46652;DHT22;32377;52.182;5.398;2024-03-29T07:35:58;9.20;99.90
46652;DHT22;32377;52.182;5.398;2024-03-29T07:38:24;9.30;99.90
46652;DHT22;32377;52.182;5.398;2024-03-29T07:40:51;9.40;99.90
46652;DHT22;32377;52.182;5.398;2024-03-29T07:43:17;9.30;99.90
46652;DHT22;32377;52.182;5.398;2024-03-29T07:45:43;9.30;99.90
46652;DHT22;32377;52.182;5.398;2024-03-29T07:48:14;9.30;99.90
46652;DHT22;32377;52.182;5.398;2024-03-29T07:50:41;9.30;99.90
46652;DHT22;32377;52.182;5.398;2024-03-29T07:53:07;9.30;99.90
46652;DHT22;32377;52.182;5.398;2024-03-29T07:55:34;9.20;99.90
46652;DHT22;32377;52.182;5.398;2024-03-29T07:57:59;9.10;99.90
46652;DHT22;32377;52.182;5.398;2024-03-29T08:00:26;9.10;99.90
46652;DHT22;32377;52.182;5.398;2024-03-29T08:02:52;9.20;99.90
46652;DHT22;32377;52.182;5.398;2024-03-29T08:05:21;9.40;99.90
46652;DHT22;32377;52.182;5.398;2024-03-29T08:07:47;9.40;99.90
46652;DHT22;32377;52.182;5.398;2024-03-29T08:10:13;9.60;99.90
46652;DHT22;32377;52.182;5.398;2024-03-29T08:12:38;9.80;99.90
46652;DHT22;32377;52.182;5.398;2024-03-29T08:15:04;9.80;99.90
46652;DHT22;32377;52.182;5.398;2024-03-29T08:17:30;9.60;99.90
46652;DHT22;32377;52.182;5.398;2024-03-29T08:19:56;9.70;99.90
46652;DHT22;32377;52.182;5.398;2024-03-29T08:22:21;9.70;99.90
46652;DHT22;32377;52.182;5.398;2024-03-29T08:24:47;9.80;99.90
46652;DHT22;32377;52.182;5.398;2024-03-29T08:27:13;9.80;36.00
46652;DHT22;32377;52.182;5.398;2024-03-29T08:29:42;9.90;29.70
46652;DHT22;32377;52.182;5.398;2024-03-29T08:32:08;10.10;26.20
46652;DHT22;32377;52.182;5.398;2024-03-29T08:34:36;10.20;1.00
46652;DHT22;32377;52.182;5.398;2024-03-29T08:37:02;10.30;1.00
46652;DHT22;32377;52.182;5.398;2024-03-29T08:39:30;10.40;1.00
46652;DHT22;32377;52.182;5.398;2024-03-29T08:41:57;10.50;99.90
46652;DHT22;32377;52.182;5.398;2024-03-29T08:44:23;10.50;99.90
46652;DHT22;32377;52.182;5.398;2024-03-29T08:46:50;10.60;99.90
46652;DHT22;32377;52.182;5.398;2024-03-29T08:49:16;10.50;99.90
46652;DHT22;32377;52.182;5.398;2024-03-29T08:51:41;10.60;99.90
46652;DHT22;32377;52.182;5.398;2024-03-29T08:54:07;10.50;99.90
46652;DHT22;32377;52.182;5.398;2024-03-29T08:56:33;10.50;99.90
46652;DHT22;32377;52.182;5.398;2024-03-29T08:59:03;10.60;99.90
46652;DHT22;32377;52.182;5.398;2024-03-29T09:01:33;10.70;99.90
46652;DHT22;32377;52.182;5.398;2024-03-29T09:03:59;10.80;99.90
46652;DHT22;32377;52.182;5.398;2024-03-29T09:06:25;11.10;99.90
46652;DHT22;32377;52.182;5.398;2024-03-29T09:08:50;11.10;93.40
46652;DHT22;32377;52.182;5.398;2024-03-29T09:11:16;11.60;81.50
46652;DHT22;32377;52.182;5.398;2024-03-29T09:13:41;11.80;1.00
46652;DHT22;32377;52.182;5.398;2024-03-29T09:16:07;12.00;1.00
46652;DHT22;32377;52.182;5.398;2024-03-29T09:18:33;12.20;1.00
46652;DHT22;32377;52.182;5.398;2024-03-29T09:20:59;12.40;99.90
46652;DHT22;32377;52.182;5.398;2024-03-29T09:23:26;12.40;99.90
46652;DHT22;32377;52.182;5.398;2024-03-29T09:25:56;12.30;99.90
46652;DHT22;32377;52.182;5.398;2024-03-29T09:28:23;12.30;99.90
46652;DHT22;32377;52.182;5.398;2024-03-29T09:30:56;12.40;99.90
46652;DHT22;32377;52.182;5.398;2024-03-29T09:33:22;12.50;99.90
46652;DHT22;32377;52.182;5.398;2024-03-29T09:35:48;12.40;99.90
46652;DHT22;32377;52.182;5.398;2024-03-29T09:38:13;12.30;99.90
46652;DHT22;32377;52.182;5.398;2024-03-29T09:40:39;12.10;99.90
46652;DHT22;32377;52.182;5.398;2024-03-29T09:43:07;11.90;99.90
46652;DHT22;32377;52.182;5.398;2024-03-29T09:45:34;12.00;99.90
46652;DHT22;32377;52.182;5.398;2024-03-29T09:48:06;12.20;99.90
46652;DHT22;32377;52.182;5.398;2024-03-29T09:50:33;12.30;99.90
46652;DHT22;32377;52.182;5.398;2024-03-29T09:53:01;12.40;99.90
46652;DHT22;32377;52.182;5.398;2024-03-29T09:55:28;12.40;99.90
46652;DHT22;32377;52.182;5.398;2024-03-29T09:57:54;12.50;99.90
46652;DHT22;32377;52.182;5.398;2024-03-29T10:00:20;12.50;99.90
46652;DHT22;32377;52.182;5.398;2024-03-29T10:02:46;12.50;99.90
46652;DHT22;32377;52.182;5.398;2024-03-29T10:05:14;12.40;99.90
46652;DHT22;32377;52.182;5.398;2024-03-29T10:07:41;12.40;99.90
46652;DHT22;32377;52.182;5.398;2024-03-29T10:10:08;12.20;99.90
46652;DHT22;32377;52.182;5.398;2024-03-29T10:12:34;12.40;99.90
46652;DHT22;32377;52.182;5.398;2024-03-29T10:14:59;12.50;99.90
46652;DHT22;32377;52.182;5.398;2024-03-29T10:17:34;12.70;99.90
46652;DHT22;32377;52.182;5.398;2024-03-29T10:20:04;12.80;99.90
46652;DHT22;32377;52.182;5.398;2024-03-29T10:22:35;13.10;99.90
46652;DHT22;32377;52.182;5.398;2024-03-29T10:25:01;13.40;99.90
46652;DHT22;32377;52.182;5.398;2024-03-29T10:27:26;13.40;99.90
46652;DHT22;32377;52.182;5.398;2024-03-29T10:29:53;13.30;99.90
46652;DHT22;32377;52.182;5.398;2024-03-29T10:32:22;13.30;99.90
46652;DHT22;32377;52.182;5.398;2024-03-29T10:34:51;13.30;99.90
46652;DHT22;32377;52.182;5.398;2024-03-29T10:37:18;13.50;99.90
46652;DHT22;32377;52.182;5.398;2024-03-29T10:39:52;13.60;99.90
46652;DHT22;32377;52.182;5.398;2024-03-29T10:42:19;13.70;99.90
46652;DHT22;32377;52.182;5.398;2024-03-29T10:44:48;13.80;99.90
46652;DHT22;32377;52.182;5.398;2024-03-29T10:47:18;13.90;99.90
46652;DHT22;32377;52.182;5.398;2024-03-29T10:49:45;13.90;99.90
46652;DHT22;32377;52.182;5.398;2024-03-29T10:52:13;13.80;99.90
46652;DHT22;32377;52.182;5.398;2024-03-29T10:54:46;13.80;99.90
46652;DHT22;32377;52.182;5.398;2024-03-29T10:58:56;14.10;99.90
46652;DHT22;32377;52.182;5.398;2024-03-29T11:01:26;13.90;99.90
46652;DHT22;32377;52.182;5.398;2024-03-29T11:03:54;13.60;99.90
46652;DHT22;32377;52.182;5.398;2024-03-29T11:06:26;13.70;99.90
46652;DHT22;32377;52.182;5.398;2024-03-29T11:08:56;14.00;99.90
46652;DHT22;32377;52.182;5.398;2024-03-29T11:11:27;14.20;99.90
46652;DHT22;32377;52.182;5.398;2024-03-29T11:14:03;14.40;99.90
46652;DHT22;32377;52.182;5.398;2024-03-29T11:16:31;14.30;99.90
46652;DHT22;32377;52.182;5.398;2024-03-29T11:18:57;14.40;99.90
46652;DHT22;32377;52.182;5.398;2024-03-29T11:21:23;14.50;99.90
46652;DHT22;32377;52.182;5.398;2024-03-29T11:23:54;14.90;99.90
46652;DHT22;32377;52.182;5.398;2024-03-29T11:26:21;15.20;99.90
46652;DHT22;32377;52.182;5.398;2024-03-29T11:28:50;15.20;99.90
46652;DHT22;32377;52.182;5.398;2024-03-29T11:31:16;15.20;99.90
46652;DHT22;32377;52.182;5.398;2024-03-29T11:38:39;15.10;99.90
46652;DHT22;32377;52.182;5.398;2024-03-29T11:41:21;15.20;99.90
46652;DHT22;32377;52.182;5.398;2024-03-29T11:43:51;14.90;99.90
46652;DHT22;32377;52.182;5.398;2024-03-29T11:46:17;15.00;99.90
46652;DHT22;32377;52.182;5.398;2024-03-29T11:48:43;15.10;99.90
46652;DHT22;32377;52.182;5.398;2024-03-29T11:51:13;15.10;99.90
46652;DHT22;32377;52.182;5.398;2024-03-29T11:53:40;15.20;91.00
46652;DHT22;32377;52.182;5.398;2024-03-29T11:56:06;15.20;86.50
46652;DHT22;32377;52.182;5.398;2024-03-29T11:58:33;15.20;99.90
46652;DHT22;32377;52.182;5.398;2024-03-29T12:01:00;15.10;99.90
46652;DHT22;32377;52.182;5.398;2024-03-29T12:03:27;15.00;99.90
46652;DHT22;32377;52.182;5.398;2024-03-29T12:05:55;15.00;99.90
46652;DHT22;32377;52.182;5.398;2024-03-29T12:08:27;14.90;99.90
46652;DHT22;32377;52.182;5.398;2024-03-29T12:10:53;14.80;99.90
46652;DHT22;32377;52.182;5.398;2024-03-29T12:13:19;14.90;99.90
46652;DHT22;32377;52.182;5.398;2024-03-29T12:15:45;14.90;99.90
46652;DHT22;32377;52.182;5.398;2024-03-29T12:18:11;14.90;99.40
46652;DHT22;32377;52.182;5.398;2024-03-29T12:20:38;14.80;98.40
46652;DHT22;32377;52.182;5.398;2024-03-29T12:23:08;14.90;99.90
46652;DHT22;32377;52.182;5.398;2024-03-29T12:25:36;15.00;98.10
46652;DHT22;32377;52.182;5.398;2024-03-29T12:28:03;15.10;92.20
46652;DHT22;32377;52.182;5.398;2024-03-29T12:30:29;15.00;98.80
46652;DHT22;32377;52.182;5.398;2024-03-29T12:33:06;15.10;94.50
46652;DHT22;32377;52.182;5.398;2024-03-29T12:35:33;15.10;92.40
46652;DHT22;32377;52.182;5.398;2024-03-29T12:38:03;15.20;99.90
46652;DHT22;32377;52.182;5.398;2024-03-29T12:40:31;15.50;99.00
46652;DHT22;32377;52.182;5.398;2024-03-29T12:43:06;15.70;82.70
46652;DHT22;32377;52.182;5.398;2024-03-29T12:45:34;15.80;84.00
46652;DHT22;32377;52.182;5.398;2024-03-29T12:48:00;15.80;87.90
46652;DHT22;32377;52.182;5.398;2024-03-29T12:50:27;15.80;73.70
46652;DHT22;32377;52.182;5.398;2024-03-29T12:52:56;15.70;64.70
46652;DHT22;32377;52.182;5.398;2024-03-29T12:55:23;15.60;57.00
46652;DHT22;32377;52.182;5.398;2024-03-29T12:57:49;15.70;59.10
46652;DHT22;32377;52.182;5.398;2024-03-29T13:00:19;15.60;39.50
46652;DHT22;32377;52.182;5.398;2024-03-29T13:02:44;15.50;49.80
46652;DHT22;32377;52.182;5.398;2024-03-29T13:05:10;15.50;51.30
46652;DHT22;32377;52.182;5.398;2024-03-29T13:07:36;15.40;51.50
46652;DHT22;32377;52.182;5.398;2024-03-29T13:10:03;15.50;68.50
46652;DHT22;32377;52.182;5.398;2024-03-29T13:12:32;15.60;59.40
46652;DHT22;32377;52.182;5.398;2024-03-29T13:15:14;15.60;41.00
46652;DHT22;32377;52.182;5.398;2024-03-29T13:17:41;15.60;58.20
46652;DHT22;32377;52.182;5.398;2024-03-29T13:20:07;15.70;59.70
46652;DHT22;32377;52.182;5.398;2024-03-29T13:22:45;15.70;44.90
46652;DHT22;32377;52.182;5.398;2024-03-29T13:25:32;15.50;56.40
46652;DHT22;32377;52.182;5.398;2024-03-29T13:27:57;15.40;56.60
46652;DHT22;32377;52.182;5.398;2024-03-29T13:30:27;15.50;59.90
46652;DHT22;32377;52.182;5.398;2024-03-29T13:32:53;15.60;57.60
46652;DHT22;32377;52.182;5.398;2024-03-29T13:35:20;15.60;52.50
46652;DHT22;32377;52.182;5.398;2024-03-29T13:37:50;15.60;56.60
46652;DHT22;32377;52.182;5.398;2024-03-29T13:40:17;15.60;44.80
46652;DHT22;32377;52.182;5.398;2024-03-29T13:42:43;15.50;57.00
46652;DHT22;32377;52.182;5.398;2024-03-29T13:45:09;15.40;65.30
46652;DHT22;32377;52.182;5.398;2024-03-29T13:47:42;15.60;61.70
46652;DHT22;32377;52.182;5.398;2024-03-29T13:50:09;15.80;61.90
46652;DHT22;32377;52.182;5.398;2024-03-29T13:52:36;16.00;49.70
46652;DHT22;32377;52.182;5.398;2024-03-29T13:55:02;16.10;46.20
46652;DHT22;32377;52.182;5.398;2024-03-29T13:57:31;16.10;41.40
46652;DHT22;32377;52.182;5.398;2024-03-29T14:00:00;16.20;31.40
46652;DHT22;32377;52.182;5.398;2024-03-29T14:02:26;16.40;40.10
46652;DHT22;32377;52.182;5.398;2024-03-29T14:04:53;16.50;26.40
46652;DHT22;32377;52.182;5.398;2024-03-29T14:07:18;16.50;21.10
46652;DHT22;32377;52.182;5.398;2024-03-29T14:09:44;16.50;11.10
46652;DHT22;32377;52.182;5.398;2024-03-29T14:12:11;16.40;11.50
46652;DHT22;32377;52.182;5.398;2024-03-29T14:14:37;16.20;11.20
46652;DHT22;32377;52.182;5.398;2024-03-29T14:17:03;16.20;12.80
46652;DHT22;32377;52.182;5.398;2024-03-29T14:19:32;16.20;9.60
46652;DHT22;32377;52.182;5.398;2024-03-29T14:22:02;16.20;13.70
46652;DHT22;32377;52.182;5.398;2024-03-29T14:24:28;16.40;9.30
46652;DHT22;32377;52.182;5.398;2024-03-29T14:26:56;16.30;1.70
46652;DHT22;32377;52.182;5.398;2024-03-29T14:29:22;16.20;4.80
46652;DHT22;32377;52.182;5.398;2024-03-29T14:31:48;16.20;1.00
46652;DHT22;32377;52.182;5.398;2024-03-29T14:34:14;16.30;6.60
46652;DHT22;32377;52.182;5.398;2024-03-29T14:36:40;16.30;2.40
46652;DHT22;32377;52.182;5.398;2024-03-29T14:39:05;16.10;1.00
46652;DHT22;32377;52.182;5.398;2024-03-29T14:41:31;16.10;8.60
46652;DHT22;32377;52.182;5.398;2024-03-29T14:43:57;16.10;1.00
46652;DHT22;32377;52.182;5.398;2024-03-29T14:46:23;16.20;5.20
46652;DHT22;32377;52.182;5.398;2024-03-29T14:48:49;16.20;5.20
46652;DHT22;32377;52.182;5.398;2024-03-29T14:51:16;16.10;10.90
46652;DHT22;32377;52.182;5.398;2024-03-29T14:53:42;16.10;3.30
46652;DHT22;32377;52.182;5.398;2024-03-29T14:56:13;16.20;5.50
46652;DHT22;32377;52.182;5.398;2024-03-29T14:58:39;16.10;1.00
46652;DHT22;32377;52.182;5.398;2024-03-29T15:01:05;16.20;1.00
46652;DHT22;32377;52.182;5.398;2024-03-29T15:03:31;16.10;1.00
46652;DHT22;32377;52.182;5.398;2024-03-29T15:05:56;16.00;1.00
46652;DHT22;32377;52.182;5.398;2024-03-29T15:08:22;16.10;1.00
46652;DHT22;32377;52.182;5.398;2024-03-29T15:10:56;16.00;1.00
46652;DHT22;32377;52.182;5.398;2024-03-29T15:13:22;16.00;5.40
46652;DHT22;32377;52.182;5.398;2024-03-29T15:15:58;16.10;2.20
46652;DHT22;32377;52.182;5.398;2024-03-29T15:18:24;16.10;2.10
46652;DHT22;32377;52.182;5.398;2024-03-29T15:20:57;16.20;4.50
46652;DHT22;32377;52.182;5.398;2024-03-29T15:23:23;16.20;1.00
46652;DHT22;32377;52.182;5.398;2024-03-29T15:25:53;16.10;1.00
46652;DHT22;32377;52.182;5.398;2024-03-29T15:28:20;16.10;1.50
46652;DHT22;32377;52.182;5.398;2024-03-29T15:31:23;16.10;2.30
46652;DHT22;32377;52.182;5.398;2024-03-29T15:33:51;16.10;4.20
46652;DHT22;32377;52.182;5.398;2024-03-29T15:36:18;15.90;10.20
46652;DHT22;32377;52.182;5.398;2024-03-29T15:38:44;15.90;12.80
46652;DHT22;32377;52.182;5.398;2024-03-29T15:41:10;15.80;9.40
46652;DHT22;32377;52.182;5.398;2024-03-29T15:43:36;15.80;9.50
46652;DHT22;32377;52.182;5.398;2024-03-29T15:46:02;15.80;15.50
46652;DHT22;32377;52.182;5.398;2024-03-29T15:48:28;15.90;11.20